Time;durP1;ratioP1;P1;durP2;ratioP2;P2;SDS_P1;SDS_P2;PMS_P1;PMS_P2;Temp;Humidity;BMP_temperature;BMP_pressure;BME280_temperature;BME280_humidity;BME280_pressure;Samples;Min_cycle;Max_cycle;Signal;HPM_P1;HPM_P2
2023/06/12 02:26:01;;;;;;;0.60;0.60;;;;;;;14.57;100.00;96429.06;5086605;28;20112;-72
2023/06/12 02:28:27;;;;;;;0.60;0.60;;;;;;;14.54;100.00;96435.44;5085594;28;20052;-71
2023/06/12 02:30:54;;;;;;;0.60;0.60;;;;;;;14.67;100.00;96422.56;5087088;28;20131;-71
2023/06/12 02:33:22;;;;;;;0.60;0.60;;;;;;;14.75;100.00;96424.09;5085563;28;20444;-72
2023/06/12 02:35:48;;;;;;;0.60;0.60;;;;;;;14.73;100.00;96420.94;5092332;28;20039;-70
2023/06/12 02:38:15;;;;;;;0.60;0.60;;;;;;;14.39;100.00;96372.66;5107027;28;20055;-72
2023/06/12 02:40:42;;;;;;;0.70;0.70;;;;;;;14.38;100.00;96365.53;5104906;28;20521;-72
2023/06/12 02:43:08;;;;;;;0.60;0.60;;;;;;;14.80;100.00;96420.88;5105475;28;20047;-72
2023/06/12 02:45:35;;;;;;;0.60;0.60;;;;;;;14.62;100.00;96417.47;5106504;28;20048;-71
2023/06/12 02:48:02;;;;;;;0.60;0.60;;;;;;;14.68;100.00;96435.31;5106951;28;20051;-72
2023/06/12 02:50:29;;;;;;;0.60;0.60;;;;;;;14.45;100.00;96387.72;5106998;28;20043;-72
2023/06/12 02:52:56;;;;;;;0.70;0.70;;;;;;;14.61;100.00;96440.94;5106769;28;20441;-71
2023/06/12 02:55:22;;;;;;;0.63;0.63;;;;;;;14.59;100.00;96440.59;5106520;28;20048;-69
2023/06/12 02:57:49;;;;;;;0.60;0.60;;;;;;;14.68;100.00;96440.91;5105249;28;20059;-71
2023/06/12 03:00:16;;;;;;;0.60;0.60;;;;;;;14.72;100.00;96436.88;5106471;28;20060;-69
2023/06/12 03:02:45;;;;;;;0.60;0.60;;;;;;;14.73;100.00;96430.09;5106580;28;20059;-72
2023/06/12 03:05:14;;;;;;;0.60;0.60;;;;;;;14.18;100.00;96337.38;5106608;28;20454;-72
2023/06/12 03:07:42;;;;;;;0.60;0.60;;;;;;;14.75;100.00;96435.25;5106558;28;20411;-70
2023/06/12 03:10:09;;;;;;;0.70;0.70;;;;;;;14.89;100.00;96441.50;5106422;28;20500;-72
2023/06/12 03:12:37;;;;;;;0.65;0.65;;;;;;;15.06;100.00;96450.91;5106017;27;20384;-72
2023/06/12 03:15:05;;;;;;;0.70;0.70;;;;;;;15.01;100.00;96421.47;5105906;28;20580;-70
2023/06/12 03:17:31;;;;;;;0.60;0.60;;;;;;;15.26;100.00;96448.28;5106435;28;20576;-72
2023/06/12 03:19:58;;;;;;;0.70;0.70;;;;;;;15.30;99.42;96449.06;5106761;28;20130;-73
2023/06/12 03:22:25;;;;;;;0.70;0.70;;;;;;;15.23;99.72;96444.34;5104195;28;20055;-70
2023/06/12 03:24:53;;;;;;;0.70;0.70;;;;;;;15.24;98.88;96442.34;5106046;28;20495;-72
2023/06/12 03:27:21;;;;;;;0.60;0.60;;;;;;;15.15;98.59;96443.63;5106328;28;20128;-72
2023/06/12 03:29:47;;;;;;;0.70;0.70;;;;;;;15.22;98.90;96448.34;5105948;28;20051;-70
2023/06/12 03:32:15;;;;;;;0.60;0.60;;;;;;;15.26;98.31;96449.09;5105909;28;20131;-72
2023/06/12 03:34:42;;;;;;;0.60;0.60;;;;;;;15.10;97.84;96418.97;5106373;27;20067;-72
2023/06/12 03:37:09;;;;;;;0.63;0.63;;;;;;;15.22;98.52;96451.13;5084190;28;20090;-73
2023/06/12 03:39:36;;;;;;;0.63;0.63;;;;;;;14.93;98.41;96378.13;5064246;28;20504;-72
2023/06/12 03:42:03;;;;;;;0.65;0.65;;;;;;;15.54;98.06;96443.22;5065308;28;20052;-73
2023/06/12 03:44:29;;;;;;;0.70;0.70;;;;;;;15.68;98.82;96448.63;5065340;28;20056;-72
2023/06/12 03:46:56;;;;;;;0.70;0.70;;;;;;;15.34;97.70;96366.88;5065032;28;20083;-69
2023/06/12 03:49:23;;;;;;;0.70;0.70;;;;;;;16.02;96.81;96446.59;5064988;28;20052;-72
2023/06/12 03:51:50;;;;;;;0.70;0.70;;;;;;;16.26;96.09;96451.03;5065251;28;20456;-72
2023/06/12 03:54:18;;;;;;;0.70;0.70;;;;;;;16.49;93.54;96453.91;5062759;28;20129;-73
2023/06/12 03:56:45;;;;;;;0.70;0.70;;;;;;;16.64;92.30;96449.66;5063338;28;20048;-73
2023/06/12 03:59:11;;;;;;;0.70;0.70;;;;;;;16.73;91.82;96449.13;5064908;28;20451;-73
2023/06/12 04:01:38;;;;;;;0.70;0.70;;;;;;;16.79;91.98;96449.44;5079706;28;20049;-72
2023/06/12 04:04:05;;;;;;;0.65;0.65;;;;;;;16.28;91.48;96359.16;4977723;28;20057;-72
2023/06/12 04:06:32;;;;;;;0.70;0.70;;;;;;;16.93;90.29;96444.38;5044594;28;20053;-71
2023/06/12 04:09:01;;;;;;;0.65;0.65;;;;;;;16.88;91.93;96455.28;5044999;28;20057;-71
2023/06/12 04:11:28;;;;;;;0.70;0.70;;;;;;;16.91;92.11;96457.22;5044410;28;20110;-70
2023/06/12 04:13:55;;;;;;;0.70;0.70;;;;;;;16.88;93.10;96458.06;5044636;28;20049;-72
2023/06/12 04:16:22;;;;;;;0.60;0.60;;;;;;;16.53;93.42;96398.69;5044353;28;20159;-72
2023/06/12 04:18:50;;;;;;;0.70;0.70;;;;;;;16.52;93.20;96385.94;5044502;28;20048;-70
2023/06/12 04:21:16;;;;;;;0.70;0.70;;;;;;;16.91;92.28;96434.84;5044153;28;20140;-71
2023/06/12 04:23:47;;;;;;;0.70;0.70;;;;;;;17.09;92.43;96452.09;5044397;28;20443;-70
2023/06/12 04:26:14;;;;;;;0.70;0.70;;;;;;;17.26;90.65;96445.41;5042589;28;20060;-73
2023/06/12 04:28:41;;;;;;;0.80;0.80;;;;;;;16.88;90.02;96402.13;5043891;28;20049;-71
2023/06/12 04:31:10;;;;;;;0.80;0.80;;;;;;;17.40;90.29;96450.72;5042914;28;20073;-72
2023/06/12 04:33:37;;;;;;;0.80;0.80;;;;;;;17.15;90.46;96414.03;5044473;28;20052;-72
2023/06/12 04:36:07;;;;;;;0.75;0.75;;;;;;;16.82;89.94;96376.63;5049256;28;20048;-71
2023/06/12 04:38:36;;;;;;;0.70;0.70;;;;;;;17.44;91.19;96451.44;5063198;28;20131;-73
2023/06/12 04:41:03;;;;;;;0.80;0.80;;;;;;;17.20;90.14;96413.53;5064135;28;20444;-72
2023/06/12 04:43:30;;;;;;;0.70;0.70;;;;;;;17.51;90.62;96456.94;5064346;28;20063;-74
2023/06/12 04:45:57;;;;;;;0.80;0.80;;;;;;;17.60;89.57;96434.75;5064305;28;20048;-72
2023/06/12 04:48:24;;;;;;;0.70;0.70;;;;;;;17.82;89.97;96449.91;5062444;28;20056;-73
2023/06/12 04:50:53;;;;;;;0.70;0.70;;;;;;;17.59;89.57;96388.38;5062240;28;20726;-74
2023/06/12 04:53:27;;;;;;;0.80;0.80;;;;;;;17.88;88.19;96436.97;5064021;28;20464;-72
2023/06/12 04:55:58;;;;;;;0.80;0.80;;;;;;;18.18;87.56;96422.69;5063742;28;20066;-70
2023/06/12 04:58:25;;;;;;;0.70;0.70;;;;;;;18.57;85.95;96452.66;5062599;28;20136;-70
2023/06/12 05:00:55;;;;;;;0.90;0.90;;;;;;;18.68;84.15;96458.81;5063706;28;20060;-70
2023/06/12 05:03:23;;;;;;;0.85;0.85;;;;;;;18.50;86.19;96419.97;5063555;28;20052;-70
2023/06/12 05:05:54;;;;;;;0.70;0.70;;;;;;;18.56;84.04;96409.78;5062144;28;20044;-69
2023/06/12 05:08:21;;;;;;;0.70;0.70;;;;;;;18.81;83.54;96397.97;5063852;28;20107;-71
2023/06/12 05:10:48;;;;;;;0.80;0.80;;;;;;;19.39;82.85;96456.59;5063540;28;20082;-71
2023/06/12 05:13:14;;;;;;;0.70;0.70;;;;;;;19.61;82.21;96448.38;5063994;28;20660;-70
2023/06/12 05:15:41;;;;;;;0.70;0.70;;;;;;;19.75;81.30;96416.28;5063328;28;20045;-71
2023/06/12 05:18:08;;;;;;;0.80;0.80;;;;;;;19.86;78.81;96394.25;5062587;28;20049;-71
2023/06/12 05:20:35;;;;;;;0.80;0.80;;;;;;;20.43;77.65;96450.41;5063736;28;20499;-71
2023/06/12 05:23:02;;;;;;;0.80;0.80;;;;;;;20.63;77.73;96448.16;5063301;28;20073;-71
2023/06/12 05:25:29;;;;;;;0.80;0.80;;;;;;;20.45;77.29;96375.56;5062053;28;20045;-71
2023/06/12 05:27:56;;;;;;;0.80;0.80;;;;;;;20.99;75.73;96449.38;5063654;28;20214;-71
2023/06/12 05:30:22;;;;;;;0.80;0.80;;;;;;;21.08;74.32;96440.25;5063460;28;20314;-71
2023/06/12 05:32:50;;;;;;;0.85;0.85;;;;;;;21.04;72.80;96405.78;5063802;28;20064;-71
2023/06/12 05:35:17;;;;;;;0.85;0.85;;;;;;;21.60;72.81;96454.53;5063620;28;20056;-71
2023/06/12 05:37:44;;;;;;;0.93;0.93;;;;;;;21.30;70.02;96365.03;5058605;28;20048;-70
2023/06/12 05:40:12;;;;;;;0.90;0.90;;;;;;;21.67;68.11;96417.63;5049571;28;20052;-65
2023/06/12 05:42:40;;;;;;;0.93;0.93;;;;;;;21.47;68.26;96371.25;5057911;28;20055;-67
2023/06/12 05:45:07;;;;;;;1.00;1.00;;;;;;;21.66;69.57;96407.59;5050953;28;20504;-72
2023/06/12 05:47:34;;;;;;;1.00;1.00;;;;;;;21.73;68.63;96396.06;5043045;28;20444;-64
2023/06/12 05:50:03;;;;;;;0.90;0.90;;;;;;;22.34;67.97;96427.19;5042735;28;20045;-75
2023/06/12 05:52:30;;;;;;;1.00;1.00;;;;;;;22.65;66.41;96460.31;5043107;28;20113;-62
2023/06/12 05:54:56;;;;;;;1.00;1.00;;;;;;;21.75;66.45;96342.84;5043340;28;20081;-63
2023/06/12 05:57:23;;;;;;;1.00;1.00;;;;;;;22.66;66.03;96459.03;5043006;28;20041;-62
2023/06/12 05:59:50;;;;;;;0.90;0.90;;;;;;;22.33;67.27;96427.66;5042446;28;20045;-75
2023/06/12 06:02:17;;;;;;;1.13;1.13;;;;;;;21.44;70.30;96389.88;5049658;28;20439;-62
2023/06/12 06:04:44;;;;;;;1.02;1.02;;;;;;;22.03;70.02;96454.59;5078507;28;20071;-62
2023/06/12 06:07:11;;;;;;;0.95;0.95;;;;;;;21.83;69.38;96411.06;5062819;28;20053;-63
2023/06/12 06:09:44;;;;;;;1.08;1.08;;;;;;;21.49;71.63;96416.69;5062476;28;20507;-61
2023/06/12 06:12:11;;;;;;;0.98;0.98;;;;;;;21.35;74.19;96434.91;5062504;28;20052;-60
2023/06/12 06:14:38;;;;;;;1.00;1.00;;;;;;;21.49;73.78;96425.94;5063993;28;20040;-62
2023/06/12 06:17:04;;;;;;;0.90;0.90;;;;;;;20.69;74.09;96336.59;5086655;28;20418;-61
2023/06/12 06:19:31;;;;;;;0.90;0.90;;;;;;;20.44;74.08;96305.66;5081400;28;20552;-62
2023/06/12 06:21:58;;;;;;;0.80;0.80;;;;;;;21.01;73.41;96372.91;5071241;28;20595;-69
2023/06/12 06:24:25;;;;;;;1.00;1.00;;;;;;;21.80;71.75;96429.66;5068147;28;20139;-64
2023/06/12 06:26:52;;;;;;;0.90;0.90;;;;;;;21.92;70.64;96437.28;5077715;28;20036;-68
2023/06/12 06:29:19;;;;;;;1.10;1.10;;;;;;;22.70;67.44;96468.94;5071528;28;20059;-64
2023/06/12 06:31:45;;;;;;;0.95;0.95;;;;;;;23.06;66.58;96463.44;5070421;28;20416;-70
2023/06/12 06:34:13;;;;;;;1.00;1.00;;;;;;;22.53;65.86;96384.94;5079793;28;20090;-63
2023/06/12 06:36:40;;;;;;;1.00;1.00;;;;;;;23.29;66.07;96471.38;5078873;28;20386;-66
2023/06/12 06:39:07;;;;;;;1.10;1.10;;;;;;;22.27;64.03;96294.81;5063061;28;20099;-63
2023/06/12 06:41:34;;;;;;;1.10;1.10;;;;;;;23.35;64.66;96474.38;5077493;28;20048;-70
2023/06/12 06:44:01;;;;;;;1.02;1.02;;;;;;;23.57;64.42;96469.38;5069735;28;20040;-65
2023/06/12 06:46:28;;;;;;;1.10;1.10;;;;;;;23.93;63.85;96463.75;5076114;28;20370;-74
2023/06/12 06:48:54;;;;;;;1.10;1.10;;;;;;;24.30;62.48;96468.13;5064042;28;20052;-63
2023/06/12 06:51:21;;;;;;;1.10;1.10;;;;;;;24.37;63.40;96465.00;5064998;28;20101;-63
2023/06/12 06:53:48;;;;;;;1.20;1.20;;;;;;;23.34;64.73;96445.34;5068926;28;21024;-68
2023/06/12 06:56:16;;;;;;;1.10;1.10;;;;;;;22.17;66.52;96346.84;5060200;28;20483;-64
2023/06/12 06:58:42;;;;;;;1.10;1.10;;;;;;;23.56;66.11;96460.13;5046865;28;20051;-64
2023/06/12 07:01:09;;;;;;;1.23;1.23;;;;;;;24.04;65.64;96457.66;5058478;28;20106;-62
2023/06/12 07:03:36;;;;;;;1.33;1.33;;;;;;;23.15;65.41;96279.00;5051360;28;20101;-62
2023/06/12 07:06:04;;;;;;;1.00;1.00;;;;;;;24.04;65.11;96429.34;5062044;28;20048;-65
2023/06/12 07:08:30;;;;;;;1.05;1.05;;;;;;;22.72;69.19;96347.06;5055083;28;20164;-62
2023/06/12 07:10:57;;;;;;;1.23;1.23;;;;;;;23.46;67.19;96420.97;5045761;28;20052;-63
2023/06/12 07:13:24;;;;;;;1.02;1.02;;;;;;;23.84;67.83;96415.66;5046690;28;20060;-68
2023/06/12 07:15:53;;;;;;;1.10;1.10;;;;;;;24.01;66.00;96368.03;5063926;28;20048;-60
2023/06/12 07:18:20;;;;;;;1.20;1.20;;;;;;;23.97;65.82;96419.13;5057228;28;20052;-60
2023/06/12 07:20:47;;;;;;;1.30;1.30;;;;;;;23.71;67.97;96350.00;5056072;28;20439;-66
2023/06/12 07:23:13;;;;;;;1.00;1.00;;;;;;;23.82;64.94;96401.22;5050873;28;20056;-71
2023/06/12 07:25:40;;;;;;;1.10;1.10;;;;;;;23.46;68.79;96454.91;5062125;28;20320;-62
2023/06/12 07:28:07;;;;;;;1.08;1.08;;;;;;;23.22;69.21;96392.50;5063503;28;20166;-61
2023/06/12 07:30:36;;;;;;;1.10;1.10;;;;;;;22.98;69.87;96343.53;5065465;28;20052;-76
2023/06/12 07:33:03;;;;;;;1.13;1.13;;;;;;;24.25;69.14;96446.13;5065921;28;20087;-62
2023/06/12 07:35:30;;;;;;;1.20;1.20;;;;;;;23.44;70.59;96372.63;5066090;28;20052;-63
2023/06/12 07:37:56;;;;;;;1.00;1.00;;;;;;;23.92;71.15;96448.03;5058213;28;20412;-68
2023/06/12 07:40:23;;;;;;;1.20;1.20;;;;;;;24.22;70.18;96432.13;5055843;28;20045;-67
2023/06/12 07:42:50;;;;;;;1.10;1.10;;;;;;;23.89;70.13;96451.78;5056966;28;20065;-63
2023/06/12 07:45:17;;;;;;;1.10;1.10;;;;;;;24.28;70.09;96445.16;5048908;28;20112;-62
2023/06/12 07:47:43;;;;;;;1.17;1.17;;;;;;;24.69;68.46;96427.47;5056635;28;20040;-69
2023/06/12 07:50:13;;;;;;;1.20;1.20;;;;;;;24.96;66.95;96433.00;5051963;28;20044;-68
2023/06/12 07:52:39;;;;;;;1.38;1.38;;;;;;;23.10;67.02;96325.63;5049638;28;20140;-69
2023/06/12 07:55:07;;;;;;;1.00;1.00;;;;;;;23.61;70.83;96442.53;5046646;28;20103;-70
2023/06/12 07:57:34;;;;;;;1.20;1.20;;;;;;;23.57;70.76;96413.63;5060563;28;20044;-71
2023/06/12 08:00:05;;;;;;;1.20;1.20;;;;;;;24.19;68.50;96442.38;5070506;28;20044;-63
2023/06/12 08:02:33;;;;;;;1.10;1.10;;;;;;;24.33;68.58;96436.03;5055507;28;20060;-67
2023/06/12 08:05:00;;;;;;;1.00;1.00;;;;;;;24.15;68.79;96433.25;5059181;28;20217;-62
2023/06/12 08:07:27;;;;;;;0.95;0.95;;;;;;;23.61;69.73;96397.28;5064412;28;20059;-59
2023/06/12 08:09:54;;;;;;;1.00;1.00;;;;;;;23.67;70.19;96371.97;5064389;28;20055;-62
2023/06/12 08:12:21;;;;;;;1.15;1.15;;;;;;;24.10;67.21;96405.59;5064463;28;20328;-61
2023/06/12 08:14:48;;;;;;;1.10;1.10;;;;;;;23.99;68.55;96371.34;5065549;28;20044;-66
2023/06/12 08:17:15;;;;;;;1.30;1.30;;;;;;;24.32;67.97;96428.81;5064715;28;20048;-66
2023/06/12 08:19:42;;;;;;;1.05;1.05;;;;;;;24.21;66.64;96371.91;5063727;28;20048;-64
2023/06/12 08:22:09;;;;;;;1.20;1.20;;;;;;;24.31;67.19;96407.41;5071894;28;20063;-62
2023/06/12 08:24:36;;;;;;;1.25;1.25;;;;;;;24.78;67.49;96413.28;5071885;28;20458;-68
2023/06/12 08:27:03;;;;;;;1.35;1.35;;;;;;;24.72;68.24;96350.00;5069365;28;20517;-65
2023/06/12 08:29:30;;;;;;;1.23;1.23;;;;;;;25.63;65.30;96418.28;5077055;28;20574;-68
2023/06/12 08:31:56;;;;;;;1.15;1.15;;;;;;;25.52;62.91;96394.56;5082676;28;20044;-62
2023/06/12 08:34:24;;;;;;;1.48;1.48;;;;;;;25.29;65.61;96422.41;5083166;28;20052;-61
2023/06/12 08:36:54;;;;;;;1.23;1.23;;;;;;;24.20;67.87;96359.00;5079934;28;20043;-63
2023/06/12 08:39:20;;;;;;;1.15;1.15;;;;;;;24.52;68.35;96431.91;5067141;28;20052;-65
2023/06/12 08:41:53;;;;;;;1.20;1.20;;;;;;;25.00;67.55;96427.16;5079979;28;20044;-71
2023/06/12 08:44:23;;;;;;;1.20;1.20;;;;;;;24.39;66.92;96343.53;5082269;28;20139;-61
2023/06/12 08:46:54;;;;;;;1.42;1.42;;;;;;;24.55;65.92;96331.81;5079410;28;20048;-70
2023/06/12 08:49:21;;;;;;;1.15;1.15;;;;;;;24.63;65.65;96364.19;5079391;28;20059;-68
2023/06/12 08:51:50;;;;;;;1.00;1.00;;;;;;;25.01;65.39;96429.53;5070707;28;20098;-68
2023/06/12 08:54:18;;;;;;;1.17;1.17;;;;;;;24.76;67.02;96424.28;5075823;28;20578;-62
2023/06/12 08:56:46;;;;;;;1.20;1.20;;;;;;;25.43;65.91;96420.97;5063761;28;20407;-68
2023/06/12 08:59:14;;;;;;;1.30;1.30;;;;;;;26.04;62.79;96425.03;5063148;28;20060;-65
2023/06/12 09:01:42;;;;;;;1.30;1.30;;;;;;;26.27;61.90;96415.69;5075689;28;20056;-64
2023/06/12 09:04:18;;;;;;;1.40;1.40;;;;;;;27.03;57.28;96409.72;5070567;28;20063;-66
2023/06/12 09:06:48;;;;;;;1.48;1.48;;;;;;;27.26;56.18;96356.78;5077135;28;20135;-68
2023/06/12 09:09:14;;;;;;;1.60;1.60;;;;;;;27.63;54.98;96321.59;5074247;28;20044;-68
2023/06/12 09:11:41;;;;;;;1.48;1.48;;;;;;;28.47;53.47;96394.47;5064863;28;20483;-62
2023/06/12 09:14:08;;;;;;;1.38;1.38;;;;;;;28.17;52.55;96303.53;5081720;28;20075;-66
2023/06/12 09:16:35;;;;;;;1.60;1.60;;;;;;;29.01;50.95;96342.78;5073327;28;20565;-64
2023/06/12 09:19:02;;;;;;;1.70;1.70;;;;;;;29.60;50.08;96382.84;5079283;28;20065;-58
2023/06/12 09:21:29;;;;;;;1.60;1.60;;;;;;;29.71;49.31;96387.81;5064435;28;20057;-58
2023/06/12 09:23:56;;;;;;;1.48;1.48;;;;;;;29.72;48.03;96378.75;5065646;28;20458;-66
2023/06/12 09:26:23;;;;;;;1.30;1.30;;;;;;;29.23;47.20;96305.06;5077565;28;20418;-67
2023/06/12 09:28:53;;;;;;;1.60;1.60;;;;;;;28.84;49.72;96395.31;5066810;28;20509;-62
2023/06/12 09:31:21;;;;;;;1.30;1.30;;;;;;;28.81;49.76;96327.88;5063546;28;20415;-71
2023/06/12 09:33:50;;;;;;;1.80;1.80;;;;;;;29.54;48.72;96362.03;5074121;28;20488;-69
2023/06/12 09:36:19;;;;;;;1.35;1.35;;;;;;;28.02;48.40;96260.16;5072242;28;20048;-62
2023/06/12 09:38:49;;;;;;;1.65;1.65;;;;;;;27.38;51.49;96396.31;5081001;28;20075;-62
2023/06/12 09:41:21;;;;;;;1.60;1.60;;;;;;;25.86;52.03;96119.44;5068185;28;20052;-69
2023/06/12 09:43:51;;;;;;;1.50;1.50;;;;;;;26.97;53.32;96357.69;5061877;28;20049;-70
2023/06/12 09:46:24;;;;;;;1.80;1.80;;;;;;;27.90;53.39;96372.38;5075126;28;20389;-68
2023/06/12 09:48:55;;;;;;;1.60;1.60;;;;;;;27.87;54.05;96392.50;5071769;28;20511;-62
2023/06/12 09:51:23;;;;;;;1.60;1.60;;;;;;;27.77;51.70;96354.88;5067788;28;20048;-69
2023/06/12 09:53:51;;;;;;;1.42;1.42;;;;;;;27.77;52.25;96405.34;5072472;28;20040;-63
2023/06/12 09:56:18;;;;;;;1.30;1.30;;;;;;;27.33;52.08;96394.16;5080282;28;20549;-64
2023/06/12 09:58:47;;;;;;;1.50;1.50;;;;;;;26.00;50.12;96306.03;5070614;28;20078;-63
2023/06/12 10:01:17;;;;;;;1.55;1.55;;;;;;;25.66;49.04;96308.69;5072069;28;20045;-62
2023/06/12 10:03:50;;;;;;;1.38;1.38;;;;;;;25.78;48.31;96418.31;5072365;28;20075;-61
2023/06/12 10:06:18;;;;;;;1.25;1.25;;;;;;;25.51;48.95;96410.03;5077368;28;20078;-69
2023/06/12 10:08:48;;;;;;;1.30;1.30;;;;;;;25.20;49.60;96448.00;5067236;28;20055;-71
2023/06/12 10:11:15;;;;;;;1.23;1.23;;;;;;;24.48;50.30;96356.88;5067139;28;20118;-63
2023/06/12 10:13:43;;;;;;;1.20;1.20;;;;;;;23.71;51.56;96290.59;5066558;28;20041;-69
2023/06/12 10:16:10;;;;;;;1.40;1.40;;;;;;;24.13;54.24;96437.81;5066533;28;20056;-63
2023/06/12 10:18:38;;;;;;;1.20;1.20;;;;;;;23.83;56.96;96443.16;5066956;28;20110;-71
2023/06/12 10:21:05;;;;;;;1.00;1.00;;;;;;;23.27;58.96;96439.19;5066519;28;20512;-63
2023/06/12 10:23:33;;;;;;;1.10;1.10;;;;;;;23.03;63.87;96453.06;5064956;28;20523;-63
2023/06/12 10:26:02;;;;;;;0.90;0.90;;;;;;;22.79;65.03;96442.78;5076964;28;20052;-71
2023/06/12 10:28:29;;;;;;;1.10;1.10;;;;;;;22.76;65.12;96457.84;5086821;28;20147;-73
2023/06/12 10:31:13;;;;;;;1.00;1.00;;;;;;;21.46;71.36;96395.84;5084918;28;20116;-67
2023/06/12 10:33:57;;;;;;;0.90;0.90;;;;;;;19.30;79.82;96324.44;5084485;28;20052;-67
2023/06/12 10:36:25;;;;;;;0.85;0.85;;;;;;;19.71;82.86;96494.28;5079392;28;20168;-66
2023/06/12 10:39:04;;;;;;;0.80;0.80;;;;;;;19.18;89.51;96507.69;5064916;28;20097;-62
2023/06/12 10:41:32;;;;;;;0.70;0.70;;;;;;;18.57;99.56;96512.38;5070033;28;20044;-63
2023/06/12 10:43:59;;;;;;;0.70;0.70;;;;;;;18.43;100.00;96472.63;5080324;28;20139;-64
2023/06/12 10:46:45;;;;;;;0.80;0.80;;;;;;;18.60;100.00;96491.88;5079927;28;20465;-65
2023/06/12 10:49:13;;;;;;;0.70;0.70;;;;;;;17.70;100.00;96408.53;5086879;28;20056;-68
2023/06/12 10:51:47;;;;;;;0.70;0.70;;;;;;;17.89;100.00;96467.34;5081112;28;20090;-68
2023/06/12 10:54:15;;;;;;;0.80;0.80;;;;;;;17.88;100.00;96476.19;5068215;28;20048;-68
2023/06/12 10:57:02;;;;;;;0.80;0.80;;;;;;;18.20;100.00;96459.50;5070771;28;20047;-66
2023/06/12 10:59:38;;;;;;;0.70;0.70;;;;;;;18.15;100.00;96429.16;5073399;28;20060;-68
2023/06/12 11:02:05;;;;;;;0.70;0.70;;;;;;;18.41;100.00;96464.66;5069360;28;20451;-66
2023/06/12 11:04:37;;;;;;;0.80;0.80;;;;;;;18.36;100.00;96464.34;5075651;28;20127;-62
2023/06/12 11:07:05;;;;;;;0.70;0.70;;;;;;;18.28;100.00;96466.53;5077276;28;20054;-67
2023/06/12 11:09:43;;;;;;;0.75;0.75;;;;;;;18.31;100.00;96460.03;5084079;28;20495;-68
2023/06/12 11:12:10;;;;;;;0.80;0.80;;;;;;;18.34;100.00;96445.16;5074239;28;20134;-66
2023/06/12 11:14:36;;;;;;;0.70;0.70;;;;;;;17.83;100.00;96417.88;5066107;28;20048;-65
2023/06/12 11:17:04;;;;;;;0.70;0.70;;;;;;;18.00;100.00;96399.88;5076807;28;20356;-66
2023/06/12 11:19:31;;;;;;;0.70;0.70;;;;;;;18.17;100.00;96439.94;5075691;28;20066;-61
2023/06/12 11:21:58;;;;;;;0.70;0.70;;;;;;;17.86;100.00;96389.75;5072343;28;20131;-67
2023/06/12 11:24:26;;;;;;;0.70;0.70;;;;;;;18.44;100.00;96435.75;5076212;28;20079;-66
2023/06/12 11:26:53;;;;;;;0.70;0.70;;;;;;;18.49;100.00;96449.25;5066608;28;20048;-71
2023/06/12 11:29:25;;;;;;;0.80;0.80;;;;;;;18.58;100.00;96452.22;5071903;28;20134;-63
2023/06/12 11:32:04;;;;;;;0.70;0.70;;;;;;;18.53;100.00;96466.78;5065128;28;20060;-62
2023/06/12 11:34:35;;;;;;;0.75;0.75;;;;;;;18.55;100.00;96475.53;5063764;28;20450;-62
2023/06/12 11:37:13;;;;;;;0.77;0.77;;;;;;;18.08;100.00;96440.53;5064964;28;20053;-64
2023/06/12 11:39:40;;;;;;;0.65;0.65;;;;;;;16.69;100.00;96246.25;5068023;28;20141;-65
2023/06/12 11:42:11;;;;;;;0.70;0.70;;;;;;;18.08;100.00;96479.78;5067813;28;20044;-61
2023/06/12 11:44:39;;;;;;;0.70;0.70;;;;;;;17.76;100.00;96455.22;5064721;28;20530;-65
2023/06/12 11:47:06;;;;;;;0.70;0.70;;;;;;;17.23;100.00;96354.66;5064044;28;20049;-64
2023/06/12 11:49:37;;;;;;;0.80;0.80;;;;;;;17.61;100.00;96439.13;5071985;28;20063;-66
2023/06/12 11:52:06;;;;;;;0.90;0.90;;;;;;;18.09;100.00;96481.34;5079268;28;20044;-67
2023/06/12 11:54:56;;;;;;;0.70;0.70;;;;;;;18.15;100.00;96484.47;5065308;28;20050;-65
2023/06/12 11:57:26;;;;;;;0.70;0.70;;;;;;;17.58;100.00;96417.56;5070858;28;20052;-64
2023/06/12 11:59:58;;;;;;;0.70;0.70;;;;;;;18.00;100.00;96483.97;5078253;28;20066;-65
2023/06/12 12:02:31;;;;;;;0.77;0.77;;;;;;;17.96;100.00;96450.41;5074738;28;20094;-63
2023/06/12 12:05:03;;;;;;;0.80;0.80;;;;;;;18.16;100.00;96475.63;5079938;28;20059;-63
2023/06/12 12:07:31;;;;;;;0.80;0.80;;;;;;;18.18;100.00;96473.13;5070642;28;20503;-64
2023/06/12 12:10:06;;;;;;;0.82;0.82;;;;;;;17.90;100.00;96431.72;5072088;28;20079;-64
2023/06/12 12:12:40;;;;;;;0.70;0.70;;;;;;;18.29;100.00;96467.31;5077670;28;20102;-65
2023/06/12 12:15:09;;;;;;;0.70;0.70;;;;;;;18.25;100.00;96447.75;5064234;28;20423;-65
2023/06/12 12:17:38;;;;;;;0.70;0.70;;;;;;;18.06;100.00;96420.56;5063023;28;20492;-65
2023/06/12 12:20:12;;;;;;;0.70;0.70;;;;;;;17.79;100.00;96359.13;5064386;28;20084;-65
2023/06/12 12:22:41;;;;;;;0.70;0.70;;;;;;;18.50;100.00;96467.66;5062238;28;20056;-63
2023/06/12 12:25:08;;;;;;;0.75;0.75;;;;;;;17.73;100.00;96351.66;5064221;28;20086;-63
2023/06/12 12:27:36;;;;;;;0.70;0.70;;;;;;;17.75;100.00;96361.19;5063832;28;20049;-65
2023/06/12 12:30:05;;;;;;;0.80;0.80;;;;;;;17.28;100.00;96342.16;5062596;28;20049;-63
2023/06/12 12:32:32;;;;;;;0.70;0.70;;;;;;;17.77;100.00;96420.38;5062531;28;20059;-64
2023/06/12 12:34:59;;;;;;;0.70;0.70;;;;;;;18.32;100.00;96481.25;5063641;28;20130;-64
2023/06/12 12:37:26;;;;;;;0.73;0.73;;;;;;;18.37;100.00;96480.72;5064015;28;20085;-65
2023/06/12 12:39:53;;;;;;;0.70;0.70;;;;;;;18.04;100.00;96479.06;5063906;28;20044;-64
2023/06/12 12:42:20;;;;;;;0.70;0.70;;;;;;;17.22;100.00;96366.28;5064108;28;20488;-62
2023/06/12 12:44:46;;;;;;;0.70;0.70;;;;;;;15.40;100.00;96075.00;5063994;28;20052;-62
2023/06/12 12:47:13;;;;;;;0.70;0.70;;;;;;;18.17;100.00;96502.41;5062622;28;20341;-64
2023/06/12 12:49:40;;;;;;;0.70;0.70;;;;;;;17.59;100.00;96492.00;5062037;28;20040;-64
2023/06/12 12:52:14;;;;;;;0.70;0.70;;;;;;;17.37;100.00;96429.19;5064156;28;20128;-64
2023/06/12 12:55:04;;;;;;;0.70;0.70;;;;;;;18.34;100.00;96487.22;5063626;28;20106;-65
2023/06/12 12:57:35;;;;;;;0.70;0.70;;;;;;;18.58;100.00;96485.91;5063768;28;20067;-62
2023/06/12 13:00:06;;;;;;;0.70;0.70;;;;;;;18.62;100.00;96463.38;5063660;28;20063;-65
2023/06/12 13:02:34;;;;;;;0.70;0.70;;;;;;;18.65;100.00;96446.44;5063648;28;20531;-63
2023/06/12 13:05:02;;;;;;;0.70;0.70;;;;;;;18.93;100.00;96479.44;5075514;28;20056;-63
2023/06/12 13:07:36;;;;;;;0.70;0.70;;;;;;;18.94;100.00;96475.41;5082303;28;20148;-64
2023/06/12 13:10:07;;;;;;;0.70;0.70;;;;;;;19.01;100.00;96441.53;5083672;28;20067;-64
2023/06/12 13:12:33;;;;;;;0.70;0.70;;;;;;;19.37;100.00;96473.13;5083810;28;20048;-61
2023/06/12 13:15:00;;;;;;;0.70;0.70;;;;;;;19.65;100.00;96451.88;5081940;28;20044;-62
2023/06/12 13:17:27;;;;;;;0.70;0.70;;;;;;;19.51;100.00;96452.25;5079565;28;20048;-63
2023/06/12 13:19:55;;;;;;;0.80;0.80;;;;;;;19.46;100.00;96459.22;5071230;28;20048;-64
2023/06/12 13:22:21;;;;;;;0.80;0.80;;;;;;;18.87;100.00;96315.63;5072776;28;20147;-64
2023/06/12 13:24:48;;;;;;;0.77;0.77;;;;;;;20.08;100.00;96451.44;5068621;28;20048;-65
2023/06/12 13:27:15;;;;;;;0.70;0.70;;;;;;;19.80;100.00;96452.25;5070352;28;20362;-62
2023/06/12 13:29:41;;;;;;;0.80;0.80;;;;;;;19.62;100.00;96443.56;5069786;28;20151;-62
2023/06/12 13:32:08;;;;;;;0.80;0.80;;;;;;;17.15;100.00;96123.72;5077274;28;20052;-62
2023/06/12 13:34:35;;;;;;;0.80;0.80;;;;;;;19.69;100.00;96440.53;5072268;28;20576;-67
2023/06/12 13:37:03;;;;;;;0.80;0.80;;;;;;;19.85;100.00;96443.28;5084600;28;20083;-64
2023/06/12 13:39:30;;;;;;;0.90;0.90;;;;;;;18.27;100.00;96187.38;5077518;28;20048;-66
2023/06/12 13:41:57;;;;;;;0.80;0.80;;;;;;;19.52;100.00;96361.91;5070336;28;20397;-64
2023/06/12 13:44:23;;;;;;;0.80;0.80;;;;;;;20.23;100.00;96447.00;5067329;28;20060;-69
2023/06/12 13:46:50;;;;;;;0.80;0.80;;;;;;;20.32;100.00;96377.59;5075061;28;20065;-64
2023/06/12 13:49:17;;;;;;;0.90;0.90;;;;;;;20.92;95.28;96384.06;5065225;28;20065;-67
2023/06/12 13:51:44;;;;;;;0.90;0.90;;;;;;;21.60;92.55;96426.34;5070907;28;20044;-66
2023/06/12 13:54:10;;;;;;;0.80;0.80;;;;;;;22.01;91.35;96434.53;5082134;28;20498;-64
2023/06/12 13:56:38;;;;;;;0.90;0.90;;;;;;;22.22;93.00;96394.19;5074695;28;20091;-66
2023/06/12 13:59:05;;;;;;;0.82;0.82;;;;;;;21.79;89.98;96332.22;5083975;28;20044;-71
2023/06/12 14:01:31;;;;;;;0.90;0.90;;;;;;;22.27;84.33;96396.41;5068929;28;20139;-66